Time;durP1;ratioP1;P1;durP2;ratioP2;P2;SDS_P1;SDS_P2;PMS_P1;PMS_P2;Temp;Humidity;BMP_temperature;BMP_pressure;BME280_temperature;BME280_humidity;BME280_pressure;Samples;Min_cycle;Max_cycle;Signal;HPM_P1;HPM_P2
2022/05/30 00:01:38;;;;;;;6.57;2.53;;;;;;;8.64;82.83;101207.19;6374001;23;20085;-78
2022/05/30 00:04:10;;;;;;;9.47;2.27;;;;;;;8.65;82.63;101199.41;6372996;23;20057;-83
2022/05/30 00:06:41;;;;;;;8.33;2.67;;;;;;;8.58;82.67;101200.25;6373093;23;20016;-81
2022/05/30 00:09:15;;;;;;;10.30;3.27;;;;;;;8.52;83.01;101200.25;6372974;23;20014;-80
2022/05/30 00:11:48;;;;;;;10.75;2.78;;;;;;;8.39;83.31;101188.94;6373476;23;20010;-80
2022/05/30 00:14:19;;;;;;;9.65;2.30;;;;;;;8.44;84.93;101189.84;6372877;23;20212;-81
2022/05/30 00:16:50;;;;;;;10.10;2.47;;;;;;;8.42;85.56;101195.84;6373002;23;20042;-82
2022/05/30 00:19:22;;;;;;;9.30;2.27;;;;;;;8.42;85.78;101193.25;6372782;23;20017;-80
2022/05/30 00:21:55;;;;;;;10.90;3.43;;;;;;;8.29;85.62;101188.03;6373964;23;20046;-84
2022/05/30 00:24:26;;;;;;;;;;;;;;;8.40;84.30;101188.94;6374127;23;20121;-83
2022/05/30 00:26:57;;;;;;;13.27;2.63;;;;;;;8.39;84.59;101189.78;6429938;23;20697;-80
2022/05/30 00:29:30;;;;;;;8.90;2.90;;;;;;;8.51;85.83;101195.91;6500724;23;20255;-81
2022/05/30 00:32:06;;;;;;;8.68;2.22;;;;;;;8.42;85.92;101193.25;6503176;23;20040;-83
2022/05/30 00:34:39;;;;;;;9.63;2.75;;;;;;;8.50;86.16;101196.75;6504818;23;20015;-80
2022/05/30 00:37:10;;;;;;;10.95;3.17;;;;;;;8.51;85.92;101194.16;6506425;23;20012;-80
2022/05/30 00:39:42;;;;;;;10.20;2.60;;;;;;;8.52;86.40;101188.13;6508455;23;20042;-80
2022/05/30 00:42:17;;;;;;;11.40;2.63;;;;;;;8.55;86.65;101193.31;6510008;23;20035;-82
2022/05/30 00:44:49;;;;;;;10.98;3.08;;;;;;;8.51;86.38;101181.19;6506410;23;20004;-78
2022/05/30 00:47:25;;;;;;;7.72;2.45;;;;;;;8.48;86.16;101180.31;6505349;23;20030;-79
2022/05/30 00:49:56;;;;;;;9.82;2.42;;;;;;;8.51;85.45;101182.91;6507158;23;20089;-79
2022/05/30 00:52:34;;;;;;;10.20;2.87;;;;;;;8.57;86.28;101180.34;6508970;23;20008;-82
2022/05/30 00:55:10;;;;;;;9.32;2.80;;;;;;;8.47;86.75;101178.56;6481289;23;20071;-80
2022/05/30 00:57:45;;;;;;;7.32;2.33;;;;;;;8.42;85.93;101178.56;6506825;23;20008;-79
2022/05/30 01:00:20;;;;;;;14.70;2.60;;;;;;;8.29;85.23;101175.06;6506102;23;20000;-78
2022/05/30 01:08:33;;;;;;;11.68;3.03;;;;;;;8.26;85.50;101171.56;6500208;23;20016;-82
2022/05/30 01:11:04;;;;;;;11.63;3.00;;;;;;;8.33;86.26;101171.59;6500357;23;20000;-80
2022/05/30 01:13:37;;;;;;;9.73;2.60;;;;;;;8.36;87.56;101171.59;6473504;23;20247;-82
2022/05/30 01:16:10;;;;;;;10.25;3.17;;;;;;;8.28;87.34;101162.06;6502736;23;20012;-81
2022/05/30 01:18:49;;;;;;;11.68;3.03;;;;;;;8.22;86.99;101168.94;6505366;23;20330;-79
2022/05/30 01:21:48;;;;;;;9.57;2.92;;;;;;;8.24;87.73;101170.69;6502214;23;20004;-80
2022/05/30 01:24:25;;;;;;;6.45;2.28;;;;;;;8.19;86.96;101168.06;6500503;23;20111;-83
2022/05/30 01:27:22;;;;;;;9.75;3.25;;;;;;;8.15;87.38;101175.00;6500455;23;20715;-83
2022/05/30 01:29:59;;;;;;;15.15;2.83;;;;;;;8.12;87.74;101176.72;6501373;23;20008;-83
2022/05/30 01:32:30;;;;;;;14.90;3.22;;;;;;;8.09;87.59;101167.19;6500623;23;20059;-82
2022/05/30 01:35:03;;;;;;;13.47;2.97;;;;;;;8.08;87.77;101167.16;6500487;23;20050;-81
2022/05/30 01:37:35;;;;;;;8.18;2.80;;;;;;;8.13;88.23;101165.47;6499808;23;20111;-80
2022/05/30 01:40:07;;;;;;;12.73;3.17;;;;;;;8.04;87.95;101156.78;6500297;23;20123;-80
2022/05/30 01:42:38;;;;;;;7.50;2.63;;;;;;;7.96;88.48;101158.47;6499743;23;20014;-80
2022/05/30 01:45:10;;;;;;;12.63;3.67;;;;;;;7.98;88.75;101159.34;6501002;23;20243;-83
2022/05/30 01:47:41;;;;;;;8.70;3.03;;;;;;;8.02;89.63;101158.50;6499641;23;20335;-83
2022/05/30 01:50:12;;;;;;;6.67;2.50;;;;;;;8.01;89.26;101155.91;6499279;23;20065;-80
2022/05/30 01:52:45;;;;;;;11.00;3.53;;;;;;;7.92;89.03;101154.16;6501006;23;20034;-83
2022/05/30 01:55:16;;;;;;;10.30;2.70;;;;;;;7.91;88.91;101151.56;6501314;23;20012;-83
2022/05/30 01:57:48;;;;;;;9.50;3.33;;;;;;;7.93;89.24;101158.47;6500518;23;20315;-79
2022/05/30 02:00:19;;;;;;;9.87;2.90;;;;;;;7.92;89.99;101156.75;6501929;23;20439;-79
2022/05/30 02:02:51;;;;;;;10.97;3.33;;;;;;;7.88;89.71;101149.78;6500985;23;20069;-83
2022/05/30 02:05:22;;;;;;;16.63;3.93;;;;;;;7.90;90.05;101155.84;6472572;23;20000;-79
2022/05/30 02:07:54;;;;;;;11.67;3.13;;;;;;;7.90;90.12;101144.63;6499801;23;20429;-83
2022/05/30 02:10:25;;;;;;;7.23;2.87;;;;;;;7.93;90.20;101149.81;6499229;23;19996;-83
2022/05/30 02:12:56;;;;;;;12.03;3.13;;;;;;;7.92;90.42;101154.16;6499947;23;20001;-80
2022/05/30 02:15:28;;;;;;;9.87;2.87;;;;;;;8.00;91.13;101151.56;6499090;23;20085;-81
2022/05/30 02:18:00;;;;;;;11.35;2.72;;;;;;;8.01;91.12;101148.13;6499293;23;20000;-81
2022/05/30 02:20:31;;;;;;;11.87;3.87;;;;;;;7.95;91.37;101151.56;6499145;23;20003;-80
2022/05/30 02:23:02;;;;;;;10.77;2.93;;;;;;;7.96;91.16;101149.84;6499383;23;20005;-81
2022/05/30 02:25:34;;;;;;;12.50;3.50;;;;;;;7.98;91.51;101154.16;6499627;23;20043;-82
2022/05/30 02:28:05;;;;;;;12.80;3.70;;;;;;;7.90;91.77;101150.66;6499225;23;20009;-80
2022/05/30 02:30:37;;;;;;;10.83;3.17;;;;;;;7.97;92.26;101154.16;6499393;23;20004;-82
2022/05/30 02:38:48;;;;;;;11.40;3.45;;;;;;;7.81;92.22;101140.25;6500790;23;20020;-79
2022/05/30 02:41:20;;;;;;;9.17;3.57;;;;;;;7.72;92.54;101135.03;6499350;23;20008;-83
2022/05/30 02:43:51;;;;;;;11.17;3.80;;;;;;;7.74;93.00;101135.88;6500004;23;20004;-79
2022/05/30 02:46:22;;;;;;;10.73;3.90;;;;;;;7.66;93.10;101138.44;6500395;23;20074;-79
2022/05/30 02:48:55;;;;;;;12.03;4.00;;;;;;;7.62;93.42;101142.75;6499816;23;20026;-83
2022/05/30 02:51:27;;;;;;;;;;;;;;;7.59;92.54;101139.28;6498944;23;20016;-81
2022/05/30 02:53:58;;;;;;;13.38;3.95;;;;;;;7.54;93.30;101136.66;6499178;23;20284;-82
2022/05/30 02:56:32;;;;;;;10.20;4.13;;;;;;;7.53;94.10;101141.84;6502729;23;20008;-84
2022/05/30 02:59:04;;;;;;;9.23;3.80;;;;;;;7.43;94.32;101141.78;6501790;23;20084;-80
2022/05/30 03:01:35;;;;;;;11.10;5.20;;;;;;;7.33;94.51;101140.00;6501533;23;20004;-83
2022/05/30 03:04:07;;;;;;;8.10;3.80;;;;;;;7.36;94.85;101141.72;6501764;23;20011;-81
2022/05/30 03:06:40;;;;;;;14.70;4.63;;;;;;;7.26;95.16;101136.50;6501867;23;20008;-78
2022/05/30 03:09:13;;;;;;;11.68;5.07;;;;;;;7.23;95.59;101146.84;6500963;23;20083;-80
2022/05/30 03:11:44;;;;;;;13.10;5.82;;;;;;;7.19;95.89;101145.09;6500686;23;20061;-81
2022/05/30 03:14:16;;;;;;;11.50;5.33;;;;;;;7.17;96.15;101145.94;6500571;23;20012;-80
2022/05/30 03:16:48;;;;;;;16.80;5.80;;;;;;;7.14;96.37;101149.38;6499723;23;20040;-80
2022/05/30 03:19:19;;;;;;;10.67;5.80;;;;;;;7.15;96.48;101152.81;6500595;23;20004;-78
2022/05/30 03:21:50;;;;;;;16.60;5.73;;;;;;;7.09;96.86;101153.66;6500282;23;20043;-81
2022/05/30 03:24:22;;;;;;;12.47;6.23;;;;;;;7.15;96.90;101148.53;6500584;23;20011;-80
2022/05/30 03:26:53;;;;;;;15.70;5.83;;;;;;;7.15;96.96;101152.81;6499915;23;20004;-80
2022/05/30 03:29:25;;;;;;;14.20;6.23;;;;;;;7.12;97.37;101153.69;6500968;23;20008;-83
2022/05/30 03:31:56;;;;;;;15.73;6.93;;;;;;;7.11;97.65;101157.13;6501183;23;20015;-84
2022/05/30 03:34:27;;;;;;;11.20;6.10;;;;;;;7.12;97.68;101151.09;6501657;23;20030;-84
2022/05/30 03:36:59;;;;;;;14.63;7.13;;;;;;;7.10;97.73;101150.22;6503091;23;20007;-82
2022/05/30 03:39:31;;;;;;;13.80;7.40;;;;;;;7.06;97.89;101154.50;6501803;23;20034;-84
2022/05/30 03:42:04;;;;;;;;;;;;;;;7.05;97.09;101162.25;6508903;23;20005;-81
2022/05/30 03:44:35;;;;;;;17.83;7.00;;;;;;;7.05;97.45;101163.16;6502154;23;19912;-84
2022/05/30 03:47:07;;;;;;;13.60;7.07;;;;;;;7.08;97.95;101168.38;6502218;23;20030;-83
2022/05/30 03:49:39;;;;;;;17.05;7.53;;;;;;;7.06;98.22;101172.66;6502022;23;20031;-84
2022/05/30 03:52:15;;;;;;;18.70;8.30;;;;;;;7.08;98.33;101172.66;6501964;23;20130;-83
2022/05/30 03:54:46;;;;;;;15.52;7.10;;;;;;;7.16;98.50;101165.81;6502486;23;20011;-83
2022/05/30 03:57:19;;;;;;;10.70;6.60;;;;;;;7.18;98.66;101166.72;6475723;23;20016;-82
2022/05/30 03:59:50;;;;;;;19.52;7.97;;;;;;;7.16;98.56;101168.41;6501974;23;20027;-83
2022/05/30 04:02:21;;;;;;;16.17;7.13;;;;;;;7.19;98.53;101168.41;6502583;23;20011;-83
2022/05/30 04:04:53;;;;;;;16.10;8.00;;;;;;;7.26;98.56;101172.81;6502247;23;20004;-83
2022/05/30 04:07:24;;;;;;;17.57;7.27;;;;;;;7.27;98.45;101168.47;6502369;23;20035;-84
2022/05/30 04:09:56;;;;;;;18.90;7.50;;;;;;;7.29;97.84;101165.06;6475142;23;20382;-84
2022/05/30 04:12:27;;;;;;;13.40;6.97;;;;;;;7.41;97.96;101158.22;6502899;23;20056;-84
2022/05/30 04:15:00;;;;;;;15.80;7.70;;;;;;;7.39;97.71;101167.69;6504439;23;20537;-81
2022/05/30 04:17:34;;;;;;;19.60;8.48;;;;;;;7.43;97.27;101159.94;6503036;23;20011;-82
2022/05/30 04:20:07;;;;;;;14.93;7.32;;;;;;;7.52;97.34;101153.06;6502494;23;20520;-83
2022/05/30 04:22:38;;;;;;;16.10;7.85;;;;;;;7.49;97.04;101157.38;6502809;23;20099;-82
2022/05/30 04:25:11;;;;;;;15.67;8.03;;;;;;;7.53;96.91;101153.06;6503535;23;20095;-86
2022/05/30 04:27:42;;;;;;;13.35;7.20;;;;;;;7.48;96.84;101155.63;6503427;23;20008;-85
2022/05/30 04:30:15;;;;;;;17.40;8.17;;;;;;;7.49;96.73;101148.75;6502830;23;20480;-85
2022/05/30 04:32:47;;;;;;;19.27;7.22;;;;;;;7.45;96.77;101155.66;6504852;23;20096;-85
2022/05/30 04:35:19;;;;;;;14.40;7.10;;;;;;;7.39;96.87;101157.31;6501461;23;20011;-80
2022/05/30 04:37:51;;;;;;;17.98;8.00;;;;;;;7.33;96.79;101158.16;6501156;23;20504;-83
2022/05/30 04:40:22;;;;;;;12.57;7.43;;;;;;;7.34;96.93;101164.19;6502125;23;20383;-81
2022/05/30 04:42:57;;;;;;;14.50;7.63;;;;;;;7.28;97.31;101163.31;6501889;23;20422;-82
2022/05/30 04:45:28;;;;;;;14.98;8.50;;;;;;;7.24;97.32;101171.91;6502460;23;20007;-85
2022/05/30 04:48:00;;;;;;;18.40;9.17;;;;;;;7.22;97.34;101176.22;6502154;23;20016;-84
2022/05/30 04:50:31;;;;;;;21.05;8.38;;;;;;;7.19;97.23;101178.78;6503500;23;20008;-85
2022/05/30 04:53:04;;;;;;;18.40;8.00;;;;;;;7.19;97.34;101175.34;6504718;23;20138;-84
2022/05/30 04:55:35;;;;;;;15.68;9.35;;;;;;;7.30;97.67;101168.50;6503897;23;20008;-85
2022/05/30 04:58:07;;;;;;;18.73;8.47;;;;;;;7.27;97.89;101179.72;6506544;23;20031;-81
2022/05/30 05:00:38;;;;;;;19.27;8.30;;;;;;;7.29;97.72;101178.03;6512578;23;20297;-80
2022/05/30 05:03:10;;;;;;;19.50;8.40;;;;;;;7.35;97.36;101178.91;6505239;23;20019;-84
2022/05/30 05:05:41;;;;;;;22.47;9.90;;;;;;;7.37;97.07;101174.59;6505055;23;20008;-84
2022/05/30 05:08:15;;;;;;;17.53;8.57;;;;;;;7.42;96.90;101180.69;6512861;23;20000;-83
2022/05/30 05:10:59;;;;;;;17.75;7.72;;;;;;;7.51;96.50;101178.16;6512080;23;20008;-82
2022/05/30 05:13:30;;;;;;;24.50;8.07;;;;;;;7.64;96.49;101182.53;6513015;23;20440;-84
2022/05/30 05:16:02;;;;;;;16.47;8.37;;;;;;;7.72;96.05;101180.00;6509756;23;20008;-83
2022/05/30 05:18:34;;;;;;;20.50;7.97;;;;;;;7.84;95.59;101177.47;6511131;23;20035;-82
2022/05/30 05:21:07;;;;;;;16.52;7.57;;;;;;;8.00;95.09;101175.81;6512131;23;20010;-83
2022/05/30 05:23:38;;;;;;;18.77;7.75;;;;;;;8.10;94.67;101181.03;6508748;23;20012;-83
2022/05/30 05:26:10;;;;;;;19.47;7.87;;;;;;;8.18;93.58;101181.94;6506941;23;20031;-85
2022/05/30 05:28:41;;;;;;;17.53;7.87;;;;;;;8.36;93.19;101178.53;6506187;23;20008;-79
2022/05/30 05:31:26;;;;;;;16.47;6.87;;;;;;;8.48;92.27;101186.38;6504602;23;20008;-84
2022/05/30 05:33:57;;;;;;;14.27;7.05;;;;;;;8.60;91.80;101188.16;6504878;23;20012;-82
2022/05/30 05:36:39;;;;;;;12.73;7.43;;;;;;;8.77;91.64;101190.75;6504322;23;20015;-83
2022/05/30 05:39:11;;;;;;;17.50;7.15;;;;;;;8.71;89.65;101189.03;6502487;23;20019;-84
2022/05/30 05:41:46;;;;;;;20.23;6.07;;;;;;;8.75;88.29;101197.69;6475428;23;20008;-85
2022/05/30 05:44:18;;;;;;;13.23;5.53;;;;;;;8.85;88.89;101201.16;6503901;23;20004;-84
2022/05/30 05:46:49;;;;;;;11.45;4.75;;;;;;;8.81;87.57;101194.25;6510601;23;20014;-83
2022/05/30 05:49:21;;;;;;;14.43;5.67;;;;;;;8.79;86.93;101201.16;6520762;23;20000;-85
2022/05/30 05:51:57;;;;;;;13.80;4.77;;;;;;;8.91;87.39;101203.78;6517293;23;20338;-80
2022/05/30 05:54:31;;;;;;;10.73;4.30;;;;;;;8.84;86.12;101204.63;6508262;23;20012;-85
2022/05/30 05:57:03;;;;;;;13.02;5.30;;;;;;;8.95;85.80;101205.50;6505858;23;20034;-83
2022/05/30 05:59:36;;;;;;;12.57;4.30;;;;;;;9.13;87.05;101202.06;6503842;23;20054;-80
2022/05/30 06:02:07;;;;;;;;;;;;;;;9.32;87.10;101208.09;6502947;23;20083;-78
2022/05/30 06:04:39;;;;;;;12.50;4.50;;;;;;;9.22;84.28;101209.84;6502690;23;19997;-84
2022/05/30 06:07:11;;;;;;;17.30;6.80;;;;;;;9.27;83.29;101208.13;6501550;23;20008;-85
2022/05/30 06:09:42;;;;;;;14.23;3.83;;;;;;;9.30;81.99;101212.44;6503700;23;20004;-82
2022/05/30 06:12:15;;;;;;;14.33;5.20;;;;;;;9.50;83.94;101207.22;6506334;23;20372;-84
2022/05/30 06:14:46;;;;;;;9.73;3.63;;;;;;;9.45;80.57;101215.03;6502825;23;20008;-84
2022/05/30 06:17:17;;;;;;;9.93;4.20;;;;;;;9.53;81.08;101212.44;6502466;23;20050;-84
2022/05/30 06:19:49;;;;;;;10.00;3.80;;;;;;;9.54;81.17;101208.09;6503060;23;20011;-85
2022/05/30 06:22:20;;;;;;;11.93;2.87;;;;;;;9.51;76.01;101214.16;6502838;23;20009;-84
2022/05/30 06:24:51;;;;;;;11.17;3.60;;;;;;;9.54;78.16;101211.53;6503753;23;20042;-85
2022/05/30 06:27:23;;;;;;;9.90;3.00;;;;;;;9.60;78.66;101213.28;6502650;23;20008;-85
2022/05/30 06:29:54;;;;;;;13.03;4.37;;;;;;;9.60;77.67;101215.88;6503245;23;20130;-84
2022/05/30 06:32:26;;;;;;;9.80;4.03;;;;;;;9.60;75.55;101215.88;6500571;23;20012;-85
2022/05/30 06:34:57;;;;;;;8.03;2.37;;;;;;;9.70;74.53;101214.13;6475372;23;20005;-80
2022/05/30 06:37:29;;;;;;;9.10;2.57;;;;;;;9.80;78.09;101216.69;6501076;23;20311;-84
2022/05/30 06:40:01;;;;;;;9.53;2.80;;;;;;;9.95;76.45;101210.59;6501275;23;20007;-85
2022/05/30 06:42:33;;;;;;;11.13;3.20;;;;;;;9.97;75.68;101211.44;6501796;23;20150;-84
2022/05/30 06:45:05;;;;;;;9.60;3.80;;;;;;;10.06;75.62;101213.13;6501435;23;20038;-83
2022/05/30 06:47:36;;;;;;;11.82;3.83;;;;;;;10.06;75.53;101217.47;6501140;23;20016;-84
2022/05/30 06:50:08;;;;;;;9.07;3.97;;;;;;;10.13;77.65;101211.41;6473792;23;20035;-84
2022/05/30 06:52:39;;;;;;;11.97;4.77;;;;;;;10.19;76.56;101214.84;6502369;23;20453;-79
2022/05/30 06:55:11;;;;;;;10.67;3.80;;;;;;;10.21;75.82;101220.03;6502140;23;20028;-84
2022/05/30 07:00:51;;;;;;;10.75;3.17;;;;;;;10.37;73.17;101218.25;6384546;23;20038;-85
2022/05/30 07:03:23;;;;;;;9.82;2.63;;;;;;;10.77;71.47;101225.84;6373927;23;20040;-81
2022/05/30 07:05:54;;;;;;;8.77;2.77;;;;;;;11.40;72.47;101211.41;6357143;23;20010;-85
2022/05/30 07:08:26;;;;;;;10.47;2.20;;;;;;;11.79;65.44;101223.22;6372584;23;20017;-84
2022/05/30 07:10:57;;;;;;;5.20;1.90;;;;;;;12.19;64.61;101219.31;6373303;23;20021;-84
2022/05/30 07:13:29;;;;;;;6.47;1.80;;;;;;;12.43;63.46;101212.91;6373655;23;20032;-79
2022/05/30 07:16:01;;;;;;;9.45;2.55;;;;;;;12.53;60.09;101217.13;6372423;23;20025;-83
2022/05/30 07:18:32;;;;;;;8.50;2.10;;;;;;;12.49;58.62;101214.56;6372013;23;20032;-83
2022/05/30 07:21:06;;;;;;;9.03;2.30;;;;;;;12.62;60.82;101213.50;6373112;23;20021;-83
2022/05/30 07:23:37;;;;;;;7.60;2.20;;;;;;;12.93;61.92;101223.53;6373580;23;20017;-84
2022/05/30 07:26:13;;;;;;;7.10;1.90;;;;;;;12.95;61.22;101230.44;6372756;23;20016;-84
2022/05/30 07:28:44;;;;;;;7.10;2.63;;;;;;;12.84;59.45;101227.13;6373197;23;20010;-79
2022/05/30 07:31:19;;;;;;;7.27;2.63;;;;;;;12.90;59.52;101229.66;6374855;23;20037;-85
2022/05/30 07:33:51;;;;;;;7.53;2.30;;;;;;;12.75;58.09;101222.91;6390067;23;20016;-83
2022/05/30 07:36:29;;;;;;;6.83;1.90;;;;;;;12.74;60.00;101221.16;6500338;23;20015;-85
2022/05/30 07:39:00;;;;;;;10.02;2.53;;;;;;;12.47;58.02;101221.56;6501106;23;20329;-84
2022/05/30 07:41:32;;;;;;;6.27;2.30;;;;;;;12.70;64.01;101216.00;6501521;23;20004;-79
2022/05/30 07:44:05;;;;;;;8.30;2.10;;;;;;;13.06;59.74;101219.81;6502703;23;20261;-85
2022/05/30 07:46:39;;;;;;;6.10;1.83;;;;;;;12.91;55.79;101217.44;6502644;23;20035;-82
2022/05/30 07:49:12;;;;;;;5.68;1.92;;;;;;;13.01;57.75;101218.16;6502783;23;20011;-84
2022/05/30 07:51:44;;;;;;;5.30;1.80;;;;;;;13.22;54.19;101216.97;6502223;23;20012;-82
2022/05/30 07:54:18;;;;;;;6.55;2.08;;;;;;;13.57;56.13;101212.88;6502257;23;20087;-82
2022/05/30 07:56:50;;;;;;;5.60;2.03;;;;;;;13.57;53.87;101213.75;6501515;23;20015;-80
2022/05/30 07:59:21;;;;;;;9.40;1.67;;;;;;;13.75;57.05;101214.28;6503191;23;20000;-83
2022/05/30 08:01:53;;;;;;;5.80;1.90;;;;;;;13.73;54.10;101211.69;6501104;23;20004;-83
2022/05/30 08:04:24;;;;;;;5.90;1.90;;;;;;;13.22;52.60;101211.72;6502708;23;20008;-82
2022/05/30 08:06:56;;;;;;;4.00;1.47;;;;;;;13.03;57.16;101206.78;6502261;23;20008;-84
2022/05/30 08:09:29;;;;;;;6.37;2.67;;;;;;;12.83;55.52;101214.94;6501769;23;20085;-83
2022/05/30 08:12:01;;;;;;;8.50;2.53;;;;;;;12.92;55.14;101203.47;6500797;23;20015;-84
2022/05/30 08:14:32;;;;;;;5.90;1.60;;;;;;;13.17;55.79;101214.41;6502000;23;20367;-84
2022/05/30 08:17:05;;;;;;;7.60;2.00;;;;;;;13.26;57.06;101218.63;6500565;23;20493;-82
2022/05/30 08:19:40;;;;;;;5.93;2.10;;;;;;;13.14;53.95;101219.69;6500465;23;19996;-83
2022/05/30 08:22:11;;;;;;;7.55;2.10;;;;;;;13.82;56.35;101221.13;6500847;23;20346;-83
2022/05/30 08:24:47;;;;;;;5.67;1.57;;;;;;;14.23;54.01;101219.41;6501396;23;20014;-82
2022/05/30 08:27:20;;;;;;;5.35;1.83;;;;;;;14.06;52.60;101211.06;6501277;23;20437;-81
2022/05/30 08:29:52;;;;;;;6.60;2.30;;;;;;;13.56;53.00;101221.63;6473014;23;20560;-82
2022/05/30 08:32:23;;;;;;;4.73;1.80;;;;;;;13.20;51.62;101224.84;6500468;23;20015;-78
2022/05/30 08:34:54;;;;;;;5.43;2.07;;;;;;;13.29;56.06;101216.81;6500992;23;20081;-82
2022/05/30 08:37:30;;;;;;;7.40;1.90;;;;;;;13.28;52.33;101216.81;6505706;23;20507;-83
2022/05/30 08:42:57;;;;;;;5.95;1.70;;;;;;;13.66;54.93;101229.28;6501905;23;20036;-82
2022/05/30 08:45:29;;;;;;;9.30;2.30;;;;;;;13.82;54.10;101229.84;6500962;23;20835;-83
2022/05/30 08:48:01;;;;;;;5.00;1.80;;;;;;;14.00;55.18;101226.00;6499026;23;20008;-82
2022/05/30 08:50:35;;;;;;;;;;;;;;;14.61;52.72;101230.88;6503805;23;20731;-80
2022/05/30 08:53:19;;;;;;;7.35;1.65;;;;;;;13.76;48.84;101236.97;6500862;23;20325;-81
2022/05/30 08:55:54;;;;;;;4.93;1.92;;;;;;;13.72;49.64;101233.56;6501079;23;20008;-79
2022/05/30 08:58:47;;;;;;;4.68;1.80;;;;;;;13.71;50.29;101237.06;6501207;23;20008;-82
2022/05/30 09:01:23;;;;;;;4.72;1.77;;;;;;;13.38;51.06;101238.50;6500924;23;20024;-83
2022/05/30 09:04:07;;;;;;;3.58;1.52;;;;;;;13.78;52.95;101228.19;6500551;23;20008;-81
2022/05/30 09:06:45;;;;;;;3.88;1.88;;;;;;;14.20;50.11;101233.47;6501154;23;20016;-82
2022/05/30 09:09:37;;;;;;;7.13;2.30;;;;;;;14.69;49.26;101230.72;6500873;23;20004;-83
2022/05/30 09:12:36;;;;;;;3.53;1.85;;;;;;;14.88;47.90;101221.50;6500196;23;20039;-80
2022/05/30 09:15:11;;;;;;;9.35;2.30;;;;;;;14.95;47.04;101228.34;6501102;23;20435;-82
2022/05/30 09:17:47;;;;;;;7.18;2.00;;;;;;;14.97;48.75;101236.16;6500196;23;20399;-82
2022/05/30 09:20:22;;;;;;;7.55;1.65;;;;;;;15.53;49.98;101233.03;6503519;23;20012;-81
2022/05/30 09:22:54;;;;;;;4.18;2.20;;;;;;;15.79;46.13;101231.50;6498233;23;20008;-80
2022/05/30 09:28:32;;;;;;;5.90;1.90;;;;;;;15.97;44.54;101230.13;6499209;23;20091;-80
2022/05/30 09:31:18;;;;;;;5.05;1.98;;;;;;;16.03;49.42;101224.69;6499581;23;20077;-82
2022/05/30 09:33:56;;;;;;;5.63;2.40;;;;;;;15.67;45.84;101225.63;6500334;23;20741;-82
2022/05/30 09:36:30;;;;;;;5.07;1.70;;;;;;;15.31;45.71;101225.72;6500198;23;20433;-83
2022/05/30 09:39:16;;;;;;;4.60;1.30;;;;;;;15.12;45.31;101232.34;6499824;23;20325;-82
2022/05/30 09:42:01;;;;;;;5.32;1.92;;;;;;;15.09;47.24;101227.16;6471961;23;20087;-81
2022/05/30 09:44:42;;;;;;;6.20;1.85;;;;;;;15.05;47.88;101228.13;6499615;23;20008;-82
2022/05/30 09:47:17;;;;;;;5.35;2.08;;;;;;;15.09;46.22;101230.63;6499743;23;20008;-82
2022/05/30 09:49:51;;;;;;;5.13;1.70;;;;;;;15.17;45.52;101229.59;6501934;23;20012;-83
2022/05/30 09:52:33;;;;;;;2.72;1.23;;;;;;;15.01;44.39;101227.34;6501194;23;20012;-83
2022/05/30 09:55:24;;;;;;;5.80;1.77;;;;;;;15.26;45.03;101229.34;6501348;23;20420;-83
2022/05/30 09:57:57;;;;;;;5.68;2.08;;;;;;;14.94;40.55;101231.88;6502025;23;20012;-80
2022/05/30 10:00:47;;;;;;;4.90;1.50;;;;;;;14.90;41.56;101230.22;6501588;23;20493;-83
2022/05/30 10:03:28;;;;;;;4.68;1.55;;;;;;;15.35;43.27;101228.25;6500789;23;20023;-82
2022/05/30 10:06:15;;;;;;;6.05;2.08;;;;;;;15.20;43.11;101234.75;6501281;23;20007;-82
2022/05/30 10:08:48;;;;;;;4.95;1.30;;;;;;;15.33;45.19;101230.94;6500034;23;20012;-85
2022/05/30 10:11:32;;;;;;;;;;;;;;;16.02;41.50;101229.09;6502781;23;20000;-82
2022/05/30 10:14:25;;;;;;;6.05;1.70;;;;;;;15.82;43.98;101228.78;6506607;23;20046;-84
2022/05/30 10:17:08;;;;;;;2.92;1.27;;;;;;;15.58;41.06;101233.75;6478879;23;20012;-82
2022/05/30 10:19:48;;;;;;;6.57;1.55;;;;;;;15.43;41.32;101232.41;6501102;23;20020;-82
2022/05/30 10:28:50;;;;;;;5.28;1.83;;;;;;;15.91;40.50;101231.16;6518262;23;20012;-82
2022/05/30 10:31:25;;;;;;;3.70;1.50;;;;;;;15.79;39.66;101234.13;6506075;23;20015;-80
2022/05/30 10:34:28;;;;;;;3.92;1.50;;;;;;;15.95;42.47;101231.94;6501851;23;20821;-82
2022/05/30 10:37:05;;;;;;;4.55;1.55;;;;;;;15.80;41.43;101235.88;6503778;23;20282;-83
2022/05/30 10:39:51;;;;;;;6.72;2.28;;;;;;;17.23;41.35;101231.56;6501501;23;20004;-81
2022/05/30 10:42:37;;;;;;;4.82;1.92;;;;;;;17.72;39.86;101246.59;6500874;23;20032;-82
2022/05/30 10:45:18;;;;;;;6.15;1.50;;;;;;;17.60;39.92;101232.09;6501114;23;20077;-84
2022/05/30 10:47:53;;;;;;;4.78;1.90;;;;;;;17.27;39.34;101243.69;6502700;23;20005;-83
2022/05/30 10:50:43;;;;;;;4.40;1.60;;;;;;;18.20;38.00;101241.34;6504764;23;20034;-84
2022/05/30 10:53:30;;;;;;;5.30;2.00;;;;;;;21.70;34.62;101238.22;6501435;23;20091;-83
2022/05/30 10:56:12;;;;;;;5.75;1.95;;;;;;;23.21;29.20;101229.94;6507438;23;20008;-83
2022/05/30 10:58:51;;;;;;;3.42;1.50;;;;;;;23.76;27.62;101238.22;6503727;23;20029;-80
2022/05/30 11:01:41;;;;;;;4.82;1.75;;;;;;;22.01;31.04;101239.28;6504764;23;20046;-83
2022/05/30 11:04:40;;;;;;;4.07;1.60;;;;;;;20.23;33.29;101240.03;6505961;23;20008;-83
2022/05/30 11:07:36;;;;;;;7.15;1.92;;;;;;;18.89;34.21;101237.00;6506294;23;20004;-83
2022/05/30 11:10:49;;;;;;;5.00;1.50;;;;;;;18.55;36.08;101235.66;6377635;23;20065;-84
2022/05/30 11:13:23;;;;;;;6.15;1.58;;;;;;;17.75;35.43;101241.22;6373502;23;20045;-83
2022/05/30 11:16:01;;;;;;;4.68;1.40;;;;;;;17.16;35.38;101234.44;6375787;23;20010;-82
2022/05/30 11:19:14;;;;;;;4.13;1.55;;;;;;;16.59;39.05;101234.44;6374275;23;20104;-81
2022/05/30 11:22:19;;;;;;;5.75;1.60;;;;;;;15.91;41.59;101238.22;6343707;23;20010;-79
2022/05/30 11:24:52;;;;;;;5.90;2.00;;;;;;;15.05;44.03;101236.00;6343094;23;20035;-82
2022/05/30 11:27:37;;;;;;;7.47;2.17;;;;;;;15.02;43.24;101236.94;6344187;23;20086;-83
2022/05/30 11:30:32;;;;;;;5.70;1.77;;;;;;;15.21;44.63;101241.72;6343403;23;20484;-82
2022/05/30 11:33:31;;;;;;;4.15;1.80;;;;;;;15.04;45.01;101229.88;6342593;23;20503;-80
2022/05/30 11:36:23;;;;;;;6.85;1.83;;;;;;;14.95;44.31;101240.59;6343207;23;20376;-78
2022/05/30 11:39:11;;;;;;;7.47;2.23;;;;;;;14.99;44.25;101238.75;6343812;23;20014;-82
2022/05/30 11:41:46;;;;;;;4.47;1.73;;;;;;;15.01;44.01;101236.97;6342678;23;20551;-82
2022/05/30 11:44:37;;;;;;;5.07;1.67;;;;;;;15.24;46.84;101239.88;6342847;23;20094;-83
2022/05/30 11:47:09;;;;;;;4.20;1.48;;;;;;;15.38;44.29;101239.56;6359145;23;20021;-82
2022/05/30 11:49:55;;;;;;;5.90;2.20;;;;;;;15.72;44.23;101245.69;6373019;23;20308;-81
2022/05/30 11:52:40;;;;;;;5.15;2.13;;;;;;;15.95;42.31;101245.09;6373047;23;20036;-81
2022/05/30 11:55:38;;;;;;;6.68;2.30;;;;;;;16.16;43.39;101235.72;6372689;23;20010;-82
2022/05/30 11:58:15;;;;;;;5.25;2.15;;;;;;;15.75;41.93;101238.59;6407962;23;20015;-84
2022/05/30 12:00:48;;;;;;;4.28;1.80;;;;;;;15.88;42.68;101243.56;6503187;23;20004;-83
2022/05/30 12:03:54;;;;;;;4.75;2.10;;;;;;;16.30;42.42;101241.44;6501762;23;20023;-84
2022/05/30 12:06:34;;;;;;;8.13;2.53;;;;;;;16.42;42.58;101242.84;6501327;23;20110;-82
2022/05/30 12:09:40;;;;;;;6.95;2.08;;;;;;;16.85;43.90;101241.56;6500935;23;20040;-82
2022/05/30 12:12:31;;;;;;;5.68;2.13;;;;;;;17.16;40.68;101248.47;6500566;23;20075;-82
2022/05/30 12:15:24;;;;;;;5.47;1.95;;;;;;;17.46;41.43;101251.00;6500765;23;20070;-83
2022/05/30 12:24:19;;;;;;;4.65;1.90;;;;;;;19.11;36.94;101239.59;6501711;23;20016;-84
2022/05/30 12:26:54;;;;;;;5.75;1.98;;;;;;;21.72;33.87;101238.16;6501096;23;20011;-83
2022/05/30 12:29:31;;;;;;;4.78;1.83;;;;;;;24.28;29.56;101237.66;6503153;23;20452;-83
2022/05/30 12:32:21;;;;;;;4.13;1.70;;;;;;;27.81;28.22;101239.56;6501933;23;20000;-84
2022/05/30 12:35:02;;;;;;;4.53;1.90;;;;;;;27.49;24.79;101230.53;6501478;23;20101;-83
2022/05/30 12:37:45;;;;;;;4.60;2.40;;;;;;;26.35;25.77;101232.63;6501238;23;20008;-83
2022/05/30 12:40:25;;;;;;;4.57;2.10;;;;;;;25.97;28.01;101240.72;6502397;23;20015;-84